createdAt,value
2023-05-10T00:00:02.989Z,17.06
2023-05-10T00:01:03.014Z,17.13
2023-05-10T00:02:03.120Z,17.41
2023-05-10T00:03:03.114Z,17.51
2023-05-10T00:04:03.147Z,17.60
2023-05-10T00:05:03.147Z,17.69
2023-05-10T00:06:03.149Z,17.56
2023-05-10T00:07:03.198Z,17.66
2023-05-10T00:08:03.202Z,17.34
2023-05-10T00:09:03.224Z,17.11
2023-05-10T00:10:03.273Z,17.35
2023-05-10T00:11:03.279Z,17.58
2023-05-10T00:12:03.342Z,17.55
2023-05-10T00:13:03.377Z,17.46
2023-05-10T00:14:03.401Z,17.56
2023-05-10T00:15:03.459Z,17.72
2023-05-10T00:16:03.513Z,17.85
2023-05-10T00:17:03.527Z,17.93
2023-05-10T00:18:03.546Z,18.03
2023-05-10T00:19:03.588Z,18.14
2023-05-10T00:20:03.591Z,18.24
2023-05-10T00:21:03.667Z,18.31
2023-05-10T00:22:03.672Z,18.38
2023-05-10T00:23:03.688Z,18.33
2023-05-10T00:24:03.771Z,18.20
2023-05-10T00:25:03.772Z,18.26
2023-05-10T00:26:03.780Z,17.99
2023-05-10T00:27:03.836Z,17.97
2023-05-10T00:28:03.902Z,18.14
2023-05-10T00:29:03.937Z,18.21
2023-05-10T00:30:03.915Z,18.30
2023-05-10T00:31:03.954Z,18.37
2023-05-10T00:32:04.041Z,18.44
2023-05-10T00:33:04.079Z,18.47
2023-05-10T00:34:04.059Z,18.58
2023-05-10T00:35:04.082Z,18.65
2023-05-10T00:36:04.094Z,18.74
2023-05-10T00:37:04.163Z,18.79
2023-05-10T00:38:04.174Z,18.84
2023-05-10T00:39:04.172Z,18.92
2023-05-10T00:40:04.204Z,18.99
2023-05-10T00:41:04.265Z,18.96
2023-05-10T00:42:04.267Z,19.01
2023-05-10T00:43:04.312Z,19.03
2023-05-10T00:44:04.330Z,19.06
2023-05-10T00:45:04.360Z,19.10
2023-05-10T00:46:04.423Z,19.09
2023-05-10T00:47:04.426Z,19.07
2023-05-10T00:48:04.531Z,19.10
2023-05-10T00:49:04.491Z,19.14
2023-05-10T00:50:04.518Z,19.13
2023-05-10T00:51:04.560Z,19.13
2023-05-10T00:52:04.592Z,19.14
2023-05-10T00:53:04.684Z,19.12
2023-05-10T00:54:04.621Z,19.16
2023-05-10T00:55:04.701Z,19.16
2023-05-10T00:56:04.721Z,19.17
2023-05-10T00:57:04.760Z,19.14
2023-05-10T00:58:04.803Z,19.06
2023-05-10T00:59:04.836Z,19.10
2023-05-10T01:00:04.821Z,19.07
2023-05-10T01:01:04.878Z,18.96
2023-05-10T01:02:04.928Z,18.89
2023-05-10T01:03:05.020Z,18.94
2023-05-10T01:04:04.960Z,18.92
2023-05-10T01:05:05.022Z,18.91
2023-05-10T01:06:05.035Z,18.89
2023-05-10T01:07:05.034Z,18.91
2023-05-10T01:08:05.069Z,18.94
2023-05-10T01:09:05.128Z,18.95
2023-05-10T01:10:05.138Z,19.02
2023-05-10T01:11:05.194Z,19.02
2023-05-10T01:12:05.268Z,19.05
2023-05-10T01:13:05.337Z,19.02
2023-05-10T01:14:05.266Z,19.07
2023-05-10T01:15:05.295Z,19.09
2023-05-10T01:16:05.438Z,19.10
2023-05-10T01:17:05.332Z,19.09
2023-05-10T01:18:05.314Z,19.01
2023-05-10T01:19:05.354Z,19.07
2023-05-10T01:20:05.379Z,19.13
2023-05-10T01:21:05.396Z,19.13
2023-05-10T01:22:05.412Z,19.16
2023-05-10T01:23:05.439Z,19.16
2023-05-10T01:24:05.493Z,19.19
2023-05-10T01:25:05.507Z,19.17
2023-05-10T01:26:05.489Z,19.19
2023-05-10T01:27:05.502Z,19.24
2023-05-10T01:28:05.552Z,19.27
2023-05-10T01:29:05.555Z,19.26
2023-05-10T01:30:14.763Z,19.27
2023-05-10T01:31:06.584Z,19.24
2023-05-10T01:32:05.558Z,19.26
2023-05-10T01:33:05.581Z,19.26
2023-05-10T01:34:05.562Z,19.22
2023-05-10T01:35:05.555Z,19.17
2023-05-10T01:36:05.532Z,19.17
2023-05-10T01:37:05.536Z,19.14
2023-05-10T01:38:05.529Z,19.22
2023-05-10T01:39:05.497Z,19.16
2023-05-10T01:40:05.536Z,19.02
2023-05-10T01:41:05.489Z,18.96
2023-05-10T01:42:05.508Z,18.95
2023-05-10T01:43:05.499Z,18.88
2023-05-10T01:44:05.567Z,18.85
2023-05-10T01:45:05.618Z,18.79
2023-05-10T01:46:05.645Z,18.48
2023-05-10T01:47:05.666Z,18.59
2023-05-10T01:48:05.724Z,18.40
2023-05-10T01:49:05.697Z,18.43
2023-05-10T01:50:05.736Z,18.52
2023-05-10T01:51:05.752Z,18.50
2023-05-10T01:52:05.817Z,18.46
2023-05-10T01:53:05.805Z,18.46
2023-05-10T01:54:05.792Z,18.40
2023-05-10T01:55:05.855Z,18.50
2023-05-10T01:56:05.887Z,18.54
2023-05-10T01:57:05.895Z,18.57
2023-05-10T01:58:05.942Z,18.59
2023-05-10T01:59:05.985Z,18.61
2023-05-10T02:00:06.011Z,18.48
2023-05-10T02:01:06.139Z,18.58
2023-05-10T02:02:06.090Z,18.62
2023-05-10T02:03:06.220Z,18.58
2023-05-10T02:04:06.253Z,18.67
2023-05-10T02:05:06.198Z,18.71
2023-05-10T02:06:06.191Z,18.72
2023-05-10T02:07:06.219Z,18.72
2023-05-10T02:08:06.267Z,18.75
2023-05-10T02:09:06.271Z,18.79
2023-05-10T02:10:06.333Z,18.78
2023-05-10T02:11:06.346Z,18.82
2023-05-10T02:12:06.395Z,18.85
2023-05-10T02:13:06.477Z,18.85
2023-05-10T02:14:06.424Z,18.78
2023-05-10T02:15:06.468Z,18.84
2023-05-10T02:16:06.577Z,18.78
2023-05-10T02:17:06.540Z,18.79
2023-05-10T02:18:06.613Z,18.82
2023-05-10T02:19:06.590Z,18.82
2023-05-10T02:20:06.582Z,18.80
2023-05-10T02:21:06.669Z,18.69
2023-05-10T02:22:06.638Z,18.59
2023-05-10T02:23:06.725Z,18.64
2023-05-10T02:24:06.674Z,18.64
2023-05-10T02:25:06.719Z,18.64
2023-05-10T02:26:06.840Z,18.58
2023-05-10T02:27:06.805Z,18.59
2023-05-10T02:28:06.871Z,18.61
2023-05-10T02:29:06.848Z,18.55
2023-05-10T02:30:06.893Z,18.58
2023-05-10T02:31:06.905Z,18.64
2023-05-10T02:32:06.964Z,18.58
2023-05-10T02:33:07.025Z,18.55
2023-05-10T02:34:06.994Z,18.47
2023-05-10T02:35:07.018Z,18.50
2023-05-10T02:36:07.064Z,18.20
2023-05-10T02:37:07.065Z,18.04
2023-05-10T02:38:07.108Z,18.03
2023-05-10T02:39:07.131Z,18.16
2023-05-10T02:40:07.198Z,18.20
2023-05-10T02:41:07.201Z,18.02
2023-05-10T02:42:07.212Z,18.00
2023-05-10T02:43:07.283Z,18.04
2023-05-10T02:44:07.284Z,18.03
2023-05-10T02:45:07.360Z,17.97
2023-05-10T02:46:07.397Z,17.88
2023-05-10T02:47:07.418Z,17.89
2023-05-10T02:48:07.502Z,17.89
2023-05-10T02:49:07.446Z,17.71
2023-05-10T02:50:07.521Z,17.73
2023-05-10T02:51:07.502Z,17.55
2023-05-10T02:52:07.599Z,17.51
2023-05-10T02:53:07.580Z,17.30
2023-05-10T02:54:07.531Z,17.13
2023-05-10T02:55:07.552Z,16.91
2023-05-10T02:56:07.599Z,16.84
2023-05-10T02:57:07.672Z,17.09
2023-05-10T02:58:07.717Z,17.13
2023-05-10T02:59:07.716Z,17.27
2023-05-10T03:00:07.737Z,17.30
2023-05-10T03:01:07.811Z,17.39
2023-05-10T03:02:07.778Z,17.42
2023-05-10T03:03:07.850Z,17.48
2023-05-10T03:04:07.836Z,17.49
2023-05-10T03:05:07.873Z,17.54
2023-05-10T03:06:07.877Z,17.49
2023-05-10T03:07:07.925Z,17.54
2023-05-10T03:08:07.927Z,17.42
2023-05-10T03:09:07.960Z,17.34
2023-05-10T03:10:07.995Z,17.24
2023-05-10T03:11:08.005Z,17.34
2023-05-10T03:12:08.059Z,17.37
2023-05-10T03:13:08.133Z,17.27
2023-05-10T03:14:08.136Z,17.38
2023-05-10T03:15:08.151Z,17.51
2023-05-10T03:16:08.225Z,17.56
2023-05-10T03:17:08.190Z,17.68
2023-05-10T03:18:08.189Z,17.76
2023-05-10T03:19:08.226Z,17.81
2023-05-10T03:20:08.269Z,17.89
2023-05-10T03:21:08.320Z,17.94
2023-05-10T03:22:08.372Z,17.94
2023-05-10T03:23:08.397Z,17.73
2023-05-10T03:24:08.420Z,17.61
2023-05-10T03:25:08.438Z,17.71
2023-05-10T03:26:08.433Z,17.72
2023-05-10T03:27:08.511Z,17.82
2023-05-10T03:28:08.531Z,17.89
2023-05-10T03:29:08.538Z,17.85
2023-05-10T03:30:08.621Z,17.58
2023-05-10T03:31:08.636Z,17.64
2023-05-10T03:32:08.616Z,17.61
2023-05-10T03:33:08.696Z,17.68
2023-05-10T03:34:08.708Z,17.78
2023-05-10T03:35:08.802Z,17.82
2023-05-10T03:36:08.800Z,17.83
2023-05-10T03:37:08.835Z,17.69
2023-05-10T03:38:08.847Z,17.79
2023-05-10T03:39:08.893Z,17.72
2023-05-10T03:40:08.902Z,17.83
2023-05-10T03:41:08.912Z,17.85
2023-05-10T03:42:08.950Z,17.88
2023-05-10T03:43:08.953Z,17.88
2023-05-10T03:44:09.084Z,17.93
2023-05-10T03:45:09.058Z,17.90
2023-05-10T03:46:09.103Z,17.99
2023-05-10T03:47:09.209Z,18.06
2023-05-10T03:48:09.136Z,18.11
2023-05-10T03:49:09.119Z,18.04
2023-05-10T03:50:09.170Z,18.02
2023-05-10T03:51:09.245Z,17.90
2023-05-10T03:52:09.312Z,17.83
2023-05-10T03:53:09.288Z,17.85
2023-05-10T03:54:09.316Z,17.90
2023-05-10T03:55:09.347Z,17.94
2023-05-10T03:56:09.406Z,17.97
2023-05-10T03:57:09.352Z,17.96
2023-05-10T03:58:09.422Z,18.02
2023-05-10T03:59:09.432Z,18.03
2023-05-10T04:00:09.461Z,18.09
2023-05-10T04:01:09.542Z,18.14
2023-05-10T04:02:09.577Z,18.10
2023-05-10T04:03:09.669Z,18.02
2023-05-10T04:04:09.658Z,17.85
2023-05-10T04:05:09.682Z,17.71
2023-05-10T04:06:09.690Z,17.64
2023-05-10T04:07:09.733Z,17.51
2023-05-10T04:08:09.764Z,17.38
2023-05-10T04:09:09.754Z,17.48
2023-05-10T04:10:09.814Z,17.61
2023-05-10T04:11:09.807Z,17.68
2023-05-10T04:12:11.112Z,17.58
2023-05-10T04:13:09.853Z,17.44
2023-05-10T04:14:09.885Z,17.14
2023-05-10T04:15:09.854Z,17.35
2023-05-10T04:16:09.952Z,17.21
2023-05-10T04:17:09.943Z,17.39
2023-05-10T04:18:09.949Z,17.31
2023-05-10T04:19:09.970Z,17.49
2023-05-10T04:20:09.976Z,17.41
2023-05-10T04:21:10.019Z,17.46
2023-05-10T04:22:10.021Z,17.46
2023-05-10T04:23:10.097Z,17.21
2023-05-10T04:24:10.093Z,17.16
2023-05-10T04:25:10.080Z,17.23
2023-05-10T04:26:10.153Z,16.89
2023-05-10T04:27:10.157Z,16.51
2023-05-10T04:28:10.235Z,16.25
2023-05-10T04:29:10.297Z,16.42
2023-05-10T04:30:10.292Z,16.47
2023-05-10T04:31:10.375Z,16.31
2023-05-10T04:32:10.369Z,16.51
2023-05-10T04:33:10.485Z,16.70
2023-05-10T04:34:10.480Z,16.86
2023-05-10T04:35:10.494Z,16.99
2023-05-10T04:36:10.534Z,17.07
2023-05-10T04:37:10.540Z,17.10
2023-05-10T04:38:10.568Z,17.03
2023-05-10T04:39:10.646Z,16.96
2023-05-10T04:40:10.688Z,17.02
2023-05-10T04:41:10.689Z,16.97
2023-05-10T04:42:10.744Z,17.03
2023-05-10T04:43:10.737Z,17.05
2023-05-10T04:44:10.741Z,17.10
2023-05-10T04:45:10.787Z,17.06
2023-05-10T04:46:10.863Z,17.16
2023-05-10T04:47:12.631Z,17.14
2023-05-10T04:48:10.913Z,17.13
2023-05-10T04:49:10.929Z,16.91
2023-05-10T04:50:10.930Z,16.96
2023-05-10T04:51:10.991Z,16.99
2023-05-10T04:52:10.968Z,16.89
2023-05-10T04:53:11.057Z,16.90
2023-05-10T04:54:11.056Z,17.00
2023-05-10T04:55:11.113Z,16.99
2023-05-10T04:56:11.123Z,16.89
2023-05-10T04:57:11.121Z,16.73
2023-05-10T04:58:11.165Z,16.84
2023-05-10T04:59:11.922Z,16.99
2023-05-10T05:00:11.198Z,16.94
2023-05-10T05:01:11.275Z,17.06
2023-05-10T05:02:11.264Z,16.86
2023-05-10T05:03:11.342Z,16.91
2023-05-10T05:04:11.314Z,17.02
2023-05-10T05:05:11.314Z,17.11
2023-05-10T05:06:11.439Z,17.21
2023-05-10T05:07:11.395Z,17.35
2023-05-10T05:08:11.441Z,17.45
2023-05-10T05:09:11.453Z,17.58
2023-05-10T05:10:12.433Z,17.65
2023-05-10T05:11:11.455Z,17.72
2023-05-10T05:12:11.517Z,17.79
2023-05-10T05:13:11.571Z,17.85
2023-05-10T05:14:11.536Z,17.92
2023-05-10T05:15:11.575Z,17.97
2023-05-10T05:16:11.630Z,17.99
2023-05-10T05:17:11.618Z,17.94
2023-05-10T05:18:11.697Z,17.97
2023-05-10T05:19:11.679Z,17.73
2023-05-10T05:20:11.716Z,17.42
2023-05-10T05:21:11.744Z,17.30
2023-05-10T05:22:11.804Z,17.27
2023-05-10T05:23:11.813Z,16.89
2023-05-10T05:24:11.838Z,16.97
2023-05-10T05:25:11.886Z,16.66
2023-05-10T05:26:11.910Z,16.42
2023-05-10T05:27:11.929Z,16.21
2023-05-10T05:28:11.972Z,16.24
2023-05-10T05:29:11.999Z,16.07
2023-05-10T05:30:12.072Z,16.34
2023-05-10T05:31:12.082Z,16.21
2023-05-10T05:32:12.194Z,16.34
2023-05-10T05:33:12.172Z,16.44
2023-05-10T05:34:12.124Z,16.47
2023-05-10T05:35:12.239Z,16.55
2023-05-10T05:36:12.261Z,16.73
2023-05-10T05:37:12.220Z,16.83
2023-05-10T05:38:12.325Z,16.62
2023-05-10T05:39:12.311Z,16.59
2023-05-10T05:40:12.282Z,16.61
2023-05-10T05:41:12.321Z,16.54
2023-05-10T05:42:12.377Z,16.65
2023-05-10T05:43:12.436Z,16.65
2023-05-10T05:44:12.447Z,16.62
2023-05-10T05:45:12.464Z,16.75
2023-05-10T05:46:12.542Z,16.35
2023-05-10T05:47:12.493Z,16.38
2023-05-10T05:48:12.537Z,16.50
2023-05-10T05:49:12.576Z,16.52
2023-05-10T05:50:12.690Z,16.65
2023-05-10T05:51:12.646Z,16.69
2023-05-10T05:52:12.702Z,16.54
2023-05-10T05:53:12.697Z,16.69
2023-05-10T05:54:12.714Z,16.80
2023-05-10T05:55:12.736Z,16.58
2023-05-10T05:56:12.796Z,16.38
2023-05-10T05:57:12.793Z,16.21
2023-05-10T05:58:12.859Z,16.38
2023-05-10T05:59:12.894Z,16.08
2023-05-10T06:00:12.886Z,16.24
2023-05-10T06:01:12.957Z,16.34
2023-05-10T06:02:12.994Z,16.45
2023-05-10T06:03:13.105Z,16.58
2023-05-10T06:04:13.099Z,16.68
2023-05-10T06:05:13.047Z,16.76
2023-05-10T06:06:13.160Z,16.83
2023-05-10T06:07:13.219Z,16.89
2023-05-10T06:08:13.244Z,17.02
2023-05-10T06:09:13.238Z,17.03
2023-05-10T06:10:13.235Z,17.13
2023-05-10T06:11:13.477Z,17.20
2023-05-10T06:12:13.280Z,17.28
2023-05-10T06:13:13.317Z,17.26
2023-05-10T06:14:13.314Z,17.39
2023-05-10T06:15:13.438Z,17.44
2023-05-10T06:16:13.433Z,17.44
2023-05-10T06:17:13.437Z,17.52
2023-05-10T06:18:13.524Z,17.52
2023-05-10T06:19:13.533Z,17.60
2023-05-10T06:20:13.592Z,17.51
2023-05-10T06:21:13.595Z,17.62
2023-05-10T06:22:13.597Z,17.68
2023-05-10T06:23:13.672Z,17.71
2023-05-10T06:24:13.685Z,17.72
2023-05-10T06:25:13.687Z,17.72
2023-05-10T06:26:13.737Z,17.69
2023-05-10T06:27:13.773Z,17.48
2023-05-10T06:28:13.951Z,17.60
2023-05-10T06:29:13.823Z,17.60
2023-05-10T06:30:13.891Z,17.38
2023-05-10T06:31:13.925Z,17.49
2023-05-10T06:32:13.920Z,17.49
2023-05-10T06:33:13.987Z,17.45
2023-05-10T06:34:13.992Z,17.52
2023-05-10T06:35:14.121Z,17.52
2023-05-10T06:36:14.037Z,17.58
2023-05-10T06:37:14.107Z,17.66
2023-05-10T06:38:14.122Z,17.72
2023-05-10T06:39:14.118Z,17.60
2023-05-10T06:40:14.149Z,17.54
2023-05-10T06:41:14.175Z,17.45
2023-05-10T06:42:14.223Z,17.46
2023-05-10T06:43:14.240Z,17.34
2023-05-10T06:44:14.486Z,17.49
2023-05-10T06:45:14.448Z,17.48
2023-05-10T06:46:14.368Z,17.56
2023-05-10T06:47:14.415Z,17.54
2023-05-10T06:48:14.434Z,17.64
2023-05-10T06:49:14.504Z,17.62
2023-05-10T06:50:14.522Z,17.65
2023-05-10T06:51:14.501Z,17.72
2023-05-10T06:52:14.619Z,17.78
2023-05-10T06:53:14.615Z,17.76
2023-05-10T06:54:14.657Z,17.72
2023-05-10T06:55:14.808Z,17.66
2023-05-10T06:56:14.732Z,17.75
2023-05-10T06:57:27.694Z,17.79
2023-05-10T06:58:15.739Z,17.85
2023-05-10T06:59:14.784Z,17.85
2023-05-10T07:00:14.794Z,17.83
2023-05-10T07:01:14.933Z,17.88
2023-05-10T07:02:14.818Z,17.89
2023-05-10T07:03:14.737Z,17.79
2023-05-10T07:04:14.812Z,17.94
2023-05-10T07:05:14.694Z,17.99
2023-05-10T07:06:29.400Z,18.02
2023-05-10T07:07:15.670Z,18.10
2023-05-10T07:08:14.631Z,18.16
2023-05-10T07:09:14.949Z,18.21
2023-05-10T07:10:14.672Z,18.24
2023-05-10T07:11:14.627Z,18.27
2023-05-10T07:12:15.610Z,18.33
2023-05-10T07:13:14.805Z,18.29
2023-05-10T07:14:14.613Z,18.27
2023-05-10T07:15:15.101Z,18.33
2023-05-10T07:16:14.616Z,18.36
2023-05-10T07:17:14.616Z,18.41
2023-05-10T07:18:14.602Z,18.44
2023-05-10T07:19:14.632Z,18.52
2023-05-10T07:20:14.629Z,18.57
2023-05-10T07:21:14.709Z,18.61
2023-05-10T07:22:14.700Z,18.68
2023-05-10T07:23:14.701Z,18.68
2023-05-10T07:24:14.749Z,18.78
2023-05-10T07:25:14.912Z,18.76
2023-05-10T07:26:14.880Z,18.84
2023-05-10T07:27:14.849Z,18.85
2023-05-10T07:28:14.878Z,18.86
2023-05-10T07:29:14.919Z,18.91
2023-05-10T07:30:14.958Z,18.88
2023-05-10T07:31:14.991Z,18.85
2023-05-10T07:32:15.027Z,18.88
2023-05-10T07:33:15.071Z,18.86
2023-05-10T07:34:15.074Z,18.88
2023-05-10T07:35:15.704Z,18.88
2023-05-10T07:36:15.494Z,18.84
2023-05-10T07:37:15.168Z,18.92
2023-05-10T07:38:15.319Z,18.94
2023-05-10T07:39:21.229Z,18.98
2023-05-10T07:40:16.196Z,18.95
2023-05-10T07:41:15.464Z,18.98
2023-05-10T07:42:15.160Z,19.03
2023-05-10T07:43:15.149Z,19.02
2023-05-10T07:44:15.139Z,19.07
2023-05-10T07:45:15.247Z,19.12
2023-05-10T07:46:15.194Z,19.16
2023-05-10T07:47:15.166Z,19.19
2023-05-10T07:48:15.113Z,19.20
2023-05-10T07:49:15.101Z,19.23
2023-05-10T07:50:15.109Z,19.13
2023-05-10T07:51:15.084Z,19.07
2023-05-10T07:52:15.084Z,19.14
2023-05-10T07:53:15.101Z,19.17
2023-05-10T07:54:15.126Z,19.23
2023-05-10T07:55:15.279Z,19.09
2023-05-10T07:56:15.157Z,18.85
2023-05-10T07:57:15.216Z,19.02
2023-05-10T07:58:15.254Z,19.03
2023-05-10T07:59:15.281Z,19.12
2023-05-10T08:00:15.346Z,19.02
2023-05-10T08:01:15.345Z,18.67
2023-05-10T08:02:15.432Z,18.72
2023-05-10T08:03:15.619Z,18.92
2023-05-10T08:04:15.475Z,18.88
2023-05-10T08:05:15.842Z,18.98
2023-05-10T08:06:15.454Z,18.99
2023-05-10T08:07:15.490Z,18.82
2023-05-10T08:08:15.496Z,18.74
2023-05-10T08:09:15.543Z,18.57
2023-05-10T08:10:15.553Z,18.65
2023-05-10T08:11:15.585Z,18.34
2023-05-10T08:12:15.646Z,18.43
2023-05-10T08:13:16.015Z,18.36
2023-05-10T08:14:15.757Z,18.11
2023-05-10T08:15:16.031Z,17.72
2023-05-10T08:16:15.847Z,17.85
2023-05-10T08:17:16.217Z,17.89
2023-05-10T08:18:16.026Z,17.97
2023-05-10T08:19:15.864Z,17.92
2023-05-10T08:20:15.902Z,17.65
2023-05-10T08:21:15.993Z,17.65
2023-05-10T08:22:15.972Z,17.68
2023-05-10T08:23:16.002Z,17.37
2023-05-10T08:24:16.036Z,17.33
2023-05-10T08:25:16.191Z,17.49
2023-05-10T08:26:16.054Z,17.34
2023-05-10T08:27:16.074Z,17.35
2023-05-10T08:28:16.084Z,17.51
2023-05-10T08:29:16.081Z,17.37
2023-05-10T08:30:16.149Z,17.06
2023-05-10T08:31:16.168Z,17.03
2023-05-10T08:32:16.197Z,17.34
2023-05-10T08:33:16.298Z,16.93
2023-05-10T08:34:16.299Z,17.17
2023-05-10T08:35:16.580Z,17.16
2023-05-10T08:36:16.382Z,17.20
2023-05-10T08:37:16.416Z,17.11
2023-05-10T08:38:16.433Z,16.90
2023-05-10T08:39:29.274Z,17.20
2023-05-10T08:40:17.476Z,17.18
2023-05-10T08:41:16.440Z,17.31
2023-05-10T08:42:16.466Z,17.09
2023-05-10T08:43:16.465Z,17.16
2023-05-10T08:44:16.417Z,17.28
2023-05-10T08:45:16.662Z,17.28
2023-05-10T08:46:16.451Z,17.41
2023-05-10T08:47:16.438Z,17.51
2023-05-10T08:48:16.435Z,17.48
2023-05-10T08:49:16.406Z,17.58
2023-05-10T08:50:16.410Z,17.35
2023-05-10T08:51:16.514Z,17.30
2023-05-10T08:52:16.398Z,17.42
2023-05-10T08:53:16.403Z,17.26
2023-05-10T08:54:16.357Z,17.14
2023-05-10T08:55:16.559Z,16.79
2023-05-10T08:56:16.428Z,17.02
2023-05-10T08:57:16.433Z,16.99
2023-05-10T08:58:16.575Z,17.16
2023-05-10T08:59:16.480Z,17.21
2023-05-10T09:00:16.496Z,17.18
2023-05-10T09:01:16.555Z,17.16
2023-05-10T09:02:18.706Z,17.20
2023-05-10T09:03:16.654Z,17.05
2023-05-10T09:04:16.675Z,17.31
2023-05-10T09:05:16.970Z,17.39
2023-05-10T09:06:16.790Z,17.55
2023-05-10T09:07:16.752Z,17.62
2023-05-10T09:08:16.825Z,17.55
2023-05-10T09:09:16.875Z,17.49
2023-05-10T09:10:16.913Z,17.69
2023-05-10T09:11:16.975Z,17.73
2023-05-10T09:12:16.989Z,17.72
2023-05-10T09:13:17.040Z,17.55
2023-05-10T09:14:17.108Z,17.71
2023-05-10T09:15:17.372Z,17.69
2023-05-10T09:16:21.584Z,17.54
2023-05-10T09:17:18.219Z,17.73
2023-05-10T09:18:17.236Z,17.83
2023-05-10T09:19:17.173Z,17.78
2023-05-10T09:20:17.186Z,17.82
2023-05-10T09:21:17.162Z,17.72
2023-05-10T09:22:17.137Z,17.89
2023-05-10T09:23:17.106Z,17.92
2023-05-10T09:24:17.110Z,17.94
2023-05-10T09:25:17.321Z,18.03
2023-05-10T09:26:17.244Z,18.09
2023-05-10T09:27:17.499Z,18.00
2023-05-10T09:28:17.073Z,18.06
2023-05-10T09:29:17.694Z,18.20
2023-05-10T09:30:17.078Z,18.33
2023-05-10T09:31:17.125Z,18.43
2023-05-10T09:32:17.056Z,18.52
2023-05-10T09:33:17.536Z,18.59
2023-05-10T09:34:17.050Z,18.67
2023-05-10T09:35:17.305Z,18.74
2023-05-10T09:36:17.091Z,18.84
2023-05-10T09:37:17.078Z,18.89
2023-05-10T09:38:17.124Z,18.78
2023-05-10T09:39:17.514Z,18.91
2023-05-10T09:40:17.178Z,18.99
2023-05-10T09:41:17.166Z,19.07
2023-05-10T09:42:17.222Z,19.16
2023-05-10T09:43:17.224Z,19.20
2023-05-10T09:44:17.252Z,19.17
2023-05-10T09:45:17.449Z,18.95
2023-05-10T09:46:17.377Z,18.95
2023-05-10T09:47:17.362Z,18.96
2023-05-10T09:48:17.417Z,18.92
2023-05-10T09:49:17.484Z,18.86
2023-05-10T09:50:17.547Z,18.89
2023-05-10T09:51:17.501Z,19.01
2023-05-10T09:52:17.533Z,19.06
2023-05-10T09:53:17.597Z,19.13
2023-05-10T09:54:17.711Z,19.20
2023-05-10T09:55:17.740Z,19.33
2023-05-10T09:56:17.717Z,19.38
2023-05-10T09:57:18.044Z,19.44
2023-05-10T09:58:17.776Z,19.46
2023-05-10T09:59:17.829Z,19.46
2023-05-10T10:00:17.843Z,19.51
2023-05-10T10:01:17.918Z,19.56
2023-05-10T10:02:17.849Z,19.54
2023-05-10T10:03:17.943Z,19.49
2023-05-10T10:04:17.913Z,19.53
2023-05-10T10:05:18.105Z,19.58
2023-05-10T10:06:29.104Z,19.46
2023-05-10T10:07:18.913Z,19.34
2023-05-10T10:08:17.947Z,19.31
2023-05-10T10:09:17.895Z,19.41
2023-05-10T10:10:17.905Z,19.24
2023-05-10T10:11:17.929Z,19.44
2023-05-10T10:12:17.887Z,19.54
2023-05-10T10:13:17.929Z,19.58
2023-05-10T10:14:18.090Z,19.62
2023-05-10T10:15:18.306Z,19.71
2023-05-10T10:16:17.909Z,19.70
2023-05-10T10:17:17.846Z,19.72
2023-05-10T10:18:17.897Z,19.77
2023-05-10T10:19:17.998Z,19.82
2023-05-10T10:20:18.051Z,19.86
2023-05-10T10:21:17.898Z,19.86
2023-05-10T10:22:18.008Z,19.96
2023-05-10T10:23:17.990Z,19.96
2023-05-10T10:24:17.857Z,19.95
2023-05-10T10:25:18.281Z,19.89
2023-05-10T10:26:18.074Z,19.93
2023-05-10T10:27:17.949Z,19.91
2023-05-10T10:28:17.991Z,19.82
2023-05-10T10:29:18.030Z,19.72
2023-05-10T10:30:18.028Z,19.70
2023-05-10T10:31:18.098Z,19.75
2023-05-10T10:32:18.160Z,19.70
2023-05-10T10:33:27.995Z,19.71
2023-05-10T10:34:19.215Z,19.82
2023-05-10T10:35:18.719Z,19.88
2023-05-10T10:36:18.123Z,19.89
2023-05-10T10:37:18.122Z,19.93
2023-05-10T10:38:18.113Z,19.98
2023-05-10T10:39:18.153Z,20.02
2023-05-10T10:40:18.110Z,20.00
2023-05-10T10:41:18.105Z,19.93
2023-05-10T10:42:18.082Z,19.93
2023-05-10T10:43:18.080Z,19.95
2023-05-10T10:44:18.561Z,19.91
2023-05-10T10:45:18.376Z,19.95
2023-05-10T10:46:18.243Z,19.71
2023-05-10T10:47:18.528Z,19.57
2023-05-10T10:48:18.058Z,19.49
2023-05-10T10:49:18.063Z,19.50
2023-05-10T10:50:18.030Z,19.31
2023-05-10T10:51:18.010Z,19.29
2023-05-10T10:52:18.019Z,19.14
2023-05-10T10:53:18.010Z,19.05
2023-05-10T10:54:18.047Z,19.02
2023-05-10T10:55:18.254Z,18.94
2023-05-10T10:56:18.091Z,19.13
2023-05-10T10:57:18.061Z,19.22
2023-05-10T10:58:18.070Z,19.30
2023-05-10T10:59:18.116Z,19.44
2023-05-10T11:00:18.126Z,19.44
2023-05-10T11:01:18.252Z,19.57
2023-05-10T11:02:18.234Z,19.68
2023-05-10T11:03:18.278Z,19.77
2023-05-10T11:04:18.302Z,19.85
2023-05-10T11:05:18.666Z,19.82
2023-05-10T11:06:18.286Z,19.95
2023-05-10T11:07:18.296Z,20.02
2023-05-10T11:08:18.577Z,20.11
2023-05-10T11:09:18.386Z,20.20
2023-05-10T11:10:18.395Z,20.22
2023-05-10T11:11:18.429Z,20.25
2023-05-10T11:12:18.433Z,20.22
2023-05-10T11:13:18.437Z,20.32
2023-05-10T11:14:18.525Z,20.29
2023-05-10T11:15:18.615Z,20.32
2023-05-10T11:16:18.663Z,20.17
2023-05-10T11:17:19.048Z,20.30
2023-05-10T11:18:18.776Z,20.12
2023-05-10T11:19:18.761Z,20.19
2023-05-10T11:20:18.887Z,20.17
2023-05-10T11:21:18.817Z,19.89
2023-05-10T11:22:18.823Z,19.79
2023-05-10T11:23:18.861Z,19.85
2023-05-10T11:24:18.880Z,19.86
2023-05-10T11:25:18.931Z,19.99
2023-05-10T11:26:18.964Z,19.71
2023-05-10T11:27:19.055Z,19.81
2023-05-10T11:28:19.069Z,19.96
2023-05-10T11:29:19.117Z,20.06
2023-05-10T11:30:19.327Z,20.05
2023-05-10T11:31:19.201Z,19.78
2023-05-10T11:32:19.252Z,19.72
2023-05-10T11:33:19.263Z,19.57
2023-05-10T11:34:19.292Z,19.64
2023-05-10T11:35:19.361Z,19.60
2023-05-10T11:36:19.365Z,19.78
2023-05-10T11:37:19.432Z,19.86
2023-05-10T11:38:19.456Z,19.65
2023-05-10T11:39:19.442Z,19.53
2023-05-10T11:40:19.676Z,19.71
2023-05-10T11:41:19.542Z,19.86
2023-05-10T11:42:19.580Z,19.61
2023-05-10T11:43:19.636Z,19.57
2023-05-10T11:44:19.643Z,19.50
2023-05-10T11:45:19.683Z,19.57
2023-05-10T11:46:19.770Z,19.78
2023-05-10T11:47:19.751Z,19.86
2023-05-10T11:48:19.804Z,19.68
2023-05-10T11:49:19.868Z,19.82
2023-05-10T11:50:20.101Z,19.61
2023-05-10T11:51:19.949Z,19.38
2023-05-10T11:52:19.962Z,19.50
2023-05-10T11:53:20.053Z,19.31
2023-05-10T11:54:20.076Z,19.46
2023-05-10T11:55:20.114Z,19.62
2023-05-10T11:56:20.080Z,19.64
2023-05-10T11:57:20.135Z,19.22
2023-05-10T11:58:20.174Z,19.61
2023-05-10T11:59:20.195Z,19.67
2023-05-10T12:00:20.385Z,19.72
2023-05-10T12:01:20.309Z,19.89
2023-05-10T12:02:20.350Z,19.93
2023-05-10T12:03:20.437Z,20.04
2023-05-10T12:04:20.541Z,20.12
2023-05-10T12:05:20.499Z,20.16
2023-05-10T12:06:20.485Z,20.19
2023-05-10T12:07:20.532Z,20.19
2023-05-10T12:08:20.532Z,20.22
2023-05-10T12:09:31.516Z,20.20
2023-05-10T12:10:22.054Z,20.23
2023-05-10T12:11:20.561Z,20.06
2023-05-10T12:12:20.568Z,20.12
2023-05-10T12:13:20.588Z,20.11
2023-05-10T12:14:20.551Z,20.12
2023-05-10T12:15:20.533Z,20.13
2023-05-10T12:16:20.559Z,20.11
2023-05-10T12:17:20.492Z,20.08
2023-05-10T12:18:20.520Z,20.12
2023-05-10T12:19:20.504Z,20.06
2023-05-10T12:20:20.807Z,20.04
2023-05-10T12:21:20.588Z,19.99
2023-05-10T12:22:20.601Z,19.95
2023-05-10T12:23:20.627Z,19.92
2023-05-10T12:24:20.628Z,19.93
2023-05-10T12:25:20.638Z,19.93
2023-05-10T12:26:20.658Z,19.88
2023-05-10T12:27:20.668Z,19.81
2023-05-10T12:28:20.842Z,19.78
2023-05-10T12:29:20.766Z,19.77
2023-05-10T12:30:20.774Z,19.70
2023-05-10T12:31:20.894Z,19.61
2023-05-10T12:32:20.848Z,19.65
2023-05-10T12:33:20.857Z,19.61
2023-05-10T12:34:20.914Z,19.62
2023-05-10T12:35:20.952Z,19.62
2023-05-10T12:36:20.998Z,19.56
2023-05-10T12:37:21.005Z,19.56
2023-05-10T12:38:21.040Z,19.51
2023-05-10T12:39:21.044Z,19.50
2023-05-10T12:40:21.075Z,19.50
2023-05-10T12:41:21.131Z,19.47
2023-05-10T12:42:21.122Z,19.46
2023-05-10T12:43:21.131Z,19.51
2023-05-10T12:44:21.187Z,19.51
2023-05-10T12:45:21.203Z,19.49
2023-05-10T12:46:21.226Z,19.51
2023-05-10T12:47:21.265Z,19.54
2023-05-10T12:48:21.302Z,19.54
2023-05-10T12:49:21.374Z,19.51
2023-05-10T12:50:21.425Z,19.50
2023-05-10T12:51:21.443Z,19.44
2023-05-10T12:52:21.457Z,19.47